Time;durP1;ratioP1;P1;durP2;ratioP2;P2;SDS_P1;SDS_P2;PMS_P1;PMS_P2;Temp;Humidity;BMP_temperature;BMP_pressure;BME280_temperature;BME280_humidity;BME280_pressure;Samples;Min_cycle;Max_cycle;Signal;HPM_P1;HPM_P2
2023/04/20 00:01:01;;;;;;;4.60;4.20;;;6.90;77.30;;;;;;5102628;28;20199;-89
2023/04/20 00:03:27;;;;;;;3.83;3.53;;;6.80;77.70;;;;;;5106437;28;20185;-87
2023/04/20 00:05:53;;;;;;;4.10;3.70;;;6.70;78.50;;;;;;5101691;28;20195;-90
2023/04/20 00:08:18;;;;;;;4.73;4.23;;;6.70;78.60;;;;;;5087038;28;20187;-90
2023/04/20 00:10:45;;;;;;;4.23;3.90;;;6.70;78.70;;;;;;5083573;28;20256;-91
2023/04/20 00:13:11;;;;;;;5.20;4.10;;;6.80;77.70;;;;;;5083827;28;20187;-92
2023/04/20 00:15:37;;;;;;;4.47;4.00;;;6.70;77.60;;;;;;5084407;28;20235;-89
2023/04/20 00:18:03;;;;;;;4.43;3.97;;;6.70;77.60;;;;;;5084568;28;20191;-89
2023/04/20 00:20:29;;;;;;;4.40;4.00;;;6.60;78.00;;;;;;5082366;28;20207;-90
2023/04/20 00:22:55;;;;;;;4.67;4.27;;;6.60;78.60;;;;;;5084286;28;20198;-91
2023/04/20 00:25:20;;;;;;;5.27;4.03;;;6.50;78.70;;;;;;5084124;28;20184;-91
2023/04/20 00:27:46;;;;;;;5.47;3.57;;;6.40;79.00;;;;;;5098287;28;20673;-88
2023/04/20 00:30:12;;;;;;;4.93;3.90;;;6.40;79.10;;;;;;5097449;28;20215;-89
2023/04/20 00:32:38;;;;;;;4.23;3.83;;;6.30;79.60;;;;;;5094518;28;20286;-89
2023/04/20 00:35:04;;;;;;;4.27;3.87;;;6.30;79.50;;;;;;5102145;28;20183;-92
2023/04/20 00:37:30;;;;;;;4.13;3.73;;;6.20;77.50;;;;;;5085522;28;20208;-90
2023/04/20 00:39:56;;;;;;;5.40;3.80;;;6.30;75.70;;;;;;5084000;28;20844;-89
2023/04/20 00:42:22;;;;;;;4.30;3.90;;;6.30;76.10;;;;;;5091778;28;20184;-94
2023/04/20 00:44:49;;;;;;;3.83;3.53;;;6.40;76.00;;;;;;5103068;28;20182;-91
2023/04/20 00:47:15;;;;;;;5.00;3.97;;;6.40;76.70;;;;;;5113996;28;20190;-93
2023/04/20 00:49:41;;;;;;;4.17;3.77;;;6.50;77.10;;;;;;5114887;28;20309;-91
2023/04/20 00:52:07;;;;;;;6.63;4.20;;;6.50;77.70;;;;;;5114571;28;20167;-91
2023/04/20 00:54:34;;;;;;;4.40;4.00;;;6.60;77.80;;;;;;5097128;28;20219;-87
2023/04/20 00:57:01;;;;;;;5.13;4.07;;;6.60;77.20;;;;;;5084602;28;20233;-89
2023/04/20 00:59:27;;;;;;;4.70;4.20;;;6.60;77.10;;;;;;5081807;28;20206;-89
2023/04/20 01:01:52;;;;;;;4.13;3.83;;;6.60;76.40;;;;;;5083096;28;20527;-91
2023/04/20 01:04:19;;;;;;;4.90;4.00;;;6.60;76.40;;;;;;5080860;28;20194;-90
2023/04/20 01:06:45;;;;;;;6.40;4.70;;;6.50;76.80;;;;;;5081076;28;20266;-91
2023/04/20 01:09:11;;;;;;;5.77;3.97;;;6.50;76.10;;;;;;5079054;28;20226;-89
2023/04/20 01:11:37;;;;;;;5.07;4.57;;;6.50;75.00;;;;;;5081041;28;20176;-92
2023/04/20 01:14:03;;;;;;;4.90;4.10;;;6.40;75.70;;;;;;5080399;28;20430;-90
2023/04/20 01:16:29;;;;;;;4.63;4.20;;;6.40;76.70;;;;;;5079560;28;20182;-89
2023/04/20 01:18:55;;;;;;;4.40;4.00;;;6.30;77.00;;;;;;5080003;28;20461;-88
2023/04/20 01:21:21;;;;;;;6.23;4.60;;;6.40;76.90;;;;;;5080801;28;20183;-90
2023/04/20 01:23:47;;;;;;;4.63;4.23;;;6.40;76.40;;;;;;5080580;28;20171;-88
2023/04/20 01:26:15;;;;;;;4.93;3.93;;;6.40;75.70;;;;;;5094417;28;20438;-89
2023/04/20 01:28:41;;;;;;;4.43;4.03;;;6.30;76.80;;;;;;5100603;28;20272;-91
2023/04/20 01:31:08;;;;;;;5.97;4.60;;;6.20;76.20;;;;;;5100412;28;20692;-89
2023/04/20 01:33:34;;;;;;;4.87;4.37;;;6.20;77.40;;;;;;5101810;28;20182;-88
2023/04/20 01:36:00;;;;;;;5.13;4.60;;;6.20;77.70;;;;;;5102188;28;20183;-90
2023/04/20 01:38:26;;;;;;;4.47;4.17;;;6.20;77.20;;;;;;5100412;28;20189;-89
2023/04/20 01:40:53;;;;;;;4.40;4.00;;;6.10;77.40;;;;;;5102052;28;20190;-90
2023/04/20 01:43:20;;;;;;;5.93;4.60;;;6.10;77.50;;;;;;5102679;28;20182;-89
2023/04/20 01:45:45;;;;;;;4.90;4.50;;;6.20;77.10;;;;;;5094592;28;20188;-89
2023/04/20 01:48:11;;;;;;;5.10;4.60;;;6.10;77.20;;;;;;5080187;28;20184;-89
2023/04/20 01:50:36;;;;;;;4.57;4.10;;;6.00;77.60;;;;;;5084007;28;20231;-91
2023/04/20 01:53:02;;;;;;;5.17;4.67;;;6.00;78.30;;;;;;5083699;28;20178;-90
2023/04/20 01:55:28;;;;;;;5.40;4.30;;;6.00;77.80;;;;;;5082272;28;20221;-90
2023/04/20 01:57:53;;;;;;;4.50;4.10;;;6.00;77.40;;;;;;5083852;28;20176;-90
2023/04/20 02:00:19;;;;;;;4.57;4.17;;;5.80;78.20;;;;;;5093966;28;20187;-94
2023/04/20 02:02:49;;;;;;;6.43;4.10;;;5.70;78.80;;;;;;5087111;28;20186;-89
2023/04/20 02:05:15;;;;;;;4.80;4.27;;;5.70;78.70;;;;;;5091844;28;20163;-89
2023/04/20 02:07:40;;;;;;;4.77;4.37;;;5.70;78.70;;;;;;5107529;28;20240;-89
2023/04/20 02:10:06;;;;;;;5.47;4.90;;;5.80;77.30;;;;;;5105342;28;20576;-89
2023/04/20 02:12:38;;;;;;;5.67;4.30;;;5.80;77.40;;;;;;5105535;28;20212;-89
2023/04/20 02:15:08;;;;;;;4.47;4.10;;;5.90;77.40;;;;;;5112362;28;20171;-93
2023/04/20 02:17:35;;;;;;;6.83;4.30;;;5.80;78.40;;;;;;5085213;28;20179;-90
2023/04/20 02:20:13;;;;;;;4.93;4.03;;;5.70;79.40;;;;;;5083075;28;20226;-90
2023/04/20 02:22:39;;;;;;;4.83;4.33;;;5.70;79.90;;;;;;5098617;28;20251;-90
2023/04/20 02:25:05;;;;;;;4.90;4.40;;;5.70;79.10;;;;;;5103217;28;20171;-90
2023/04/20 02:27:32;;;;;;;5.43;4.57;;;5.70;77.80;;;;;;5085211;28;20180;-91
2023/04/20 02:29:58;;;;;;;4.73;4.33;;;5.80;78.50;;;;;;5097314;28;20234;-91
2023/04/20 02:32:24;;;;;;;5.57;5.00;;;5.80;79.20;;;;;;5085903;28;20191;-89
2023/04/20 02:34:50;;;;;;;7.13;4.30;;;5.90;77.90;;;;;;5088152;28;20175;-88
2023/04/20 02:37:15;;;;;;;6.93;5.03;;;5.90;76.80;;;;;;5094343;28;20182;-90
2023/04/20 02:39:41;;;;;;;6.33;4.87;;;5.90;77.90;;;;;;5108506;28;20286;-89
2023/04/20 02:42:07;;;;;;;5.13;4.73;;;5.80;77.00;;;;;;5094275;28;20184;-89
2023/04/20 02:44:32;;;;;;;4.53;4.13;;;5.90;77.70;;;;;;5086603;28;20171;-89
2023/04/20 02:46:58;;;;;;;5.00;4.53;;;5.80;77.60;;;;;;5086214;28;20171;-91
2023/04/20 02:49:24;;;;;;;5.20;4.70;;;5.80;77.60;;;;;;5086096;28;20212;-88
2023/04/20 02:51:49;;;;;;;4.90;4.43;;;5.70;77.50;;;;;;5084755;28;20176;-90
2023/04/20 02:54:15;;;;;;;5.60;4.53;;;5.70;76.30;;;;;;5103629;28;20175;-91
2023/04/20 02:56:41;;;;;;;6.20;4.30;;;5.70;76.60;;;;;;5101322;28;20179;-91
2023/04/20 02:59:07;;;;;;;5.30;4.80;;;5.50;78.00;;;;;;5104548;28;20220;-89
2023/04/20 03:01:32;;;;;;;6.73;5.07;;;5.50;78.60;;;;;;5105622;28;20212;-89
2023/04/20 03:03:58;;;;;;;5.30;4.50;;;5.50;78.40;;;;;;5087879;28;20267;-90
2023/04/20 03:06:25;;;;;;;5.13;4.67;;;5.50;78.80;;;;;;5083957;28;20189;-89
2023/04/20 03:08:51;;;;;;;5.57;4.77;;;5.50;77.50;;;;;;5083495;28;20230;-88
2023/04/20 03:11:16;;;;;;;5.57;5.03;;;5.60;79.80;;;;;;5085508;28;20199;-88
2023/04/20 03:13:42;;;;;;;7.03;5.03;;;5.60;78.20;;;;;;5097261;28;20187;-88
2023/04/20 03:16:23;;;;;;;4.80;4.40;;;5.60;78.10;;;;;;5101999;28;20179;-89
2023/04/20 03:18:48;;;;;;;6.40;4.97;;;5.70;77.30;;;;;;5103341;28;20279;-89
2023/04/20 03:21:15;;;;;;;8.13;4.93;;;5.60;78.10;;;;;;5102494;28;20230;-90
2023/04/20 03:23:40;;;;;;;7.33;4.73;;;5.60;78.10;;;;;;5103621;28;20267;-89
2023/04/20 03:26:06;;;;;;;5.77;5.17;;;5.60;78.30;;;;;;5087590;28;20188;-89
2023/04/20 03:28:32;;;;;;;6.53;4.97;;;5.60;77.00;;;;;;5084159;28;20179;-89
2023/04/20 03:30:58;;;;;;;6.80;5.40;;;5.60;77.30;;;;;;5083076;28;20316;-90
2023/04/20 03:33:24;;;;;;;5.97;4.67;;;5.60;77.00;;;;;;5092308;28;20187;-90
2023/04/20 03:35:49;;;;;;;5.53;4.90;;;5.60;77.80;;;;;;5104092;28;20212;-89
2023/04/20 03:38:15;;;;;;;4.83;4.37;;;5.60;77.40;;;;;;5103013;28;20183;-89
2023/04/20 03:40:40;;;;;;;7.07;4.57;;;5.60;77.10;;;;;;5104355;28;20206;-89
2023/04/20 03:43:06;;;;;;;5.03;4.30;;;5.60;77.90;;;;;;5103912;28;20183;-89
2023/04/20 03:45:32;;;;;;;4.97;4.57;;;5.60;78.50;;;;;;5104353;28;20197;-88
2023/04/20 03:47:57;;;;;;;6.40;5.37;;;5.50;79.00;;;;;;5103389;28;20186;-89
2023/04/20 03:50:23;;;;;;;6.93;5.10;;;5.50;79.00;;;;;;5102827;28;20223;-89
2023/04/20 03:52:55;;;;;;;5.27;4.77;;;5.40;79.40;;;;;;5095778;28;20175;-88
2023/04/20 03:55:20;;;;;;;6.07;5.20;;;5.40;79.40;;;;;;5090686;28;20202;-89
2023/04/20 03:57:46;;;;;;;5.30;4.80;;;5.40;79.30;;;;;;5082718;28;20175;-89
2023/04/20 04:00:12;;;;;;;8.00;5.13;;;5.30;80.00;;;;;;5083938;28;20205;-88
2023/04/20 04:02:38;;;;;;;6.40;5.30;;;5.30;79.80;;;;;;5083408;28;20187;-87
2023/04/20 04:05:04;;;;;;;5.60;5.00;;;5.30;80.10;;;;;;5088516;28;20217;-91
2023/04/20 04:07:30;;;;;;;5.53;5.07;;;5.30;80.50;;;;;;5102400;28;20178;-89
2023/04/20 04:09:56;;;;;;;5.80;5.20;;;5.30;80.50;;;;;;5103242;28;20255;-88
2023/04/20 04:12:21;;;;;;;5.67;5.07;;;5.40;80.10;;;;;;5097436;28;20183;-88
2023/04/20 04:14:47;;;;;;;6.23;5.43;;;5.40;80.20;;;;;;5104063;28;20187;-88
2023/04/20 04:17:14;;;;;;;5.33;4.90;;;5.40;80.00;;;;;;5102898;28;20178;-89
2023/04/20 04:19:42;;;;;;;5.87;5.27;;;5.30;80.50;;;;;;5105888;28;20187;-89
2023/04/20 04:22:08;;;;;;;5.90;5.40;;;5.30;80.80;;;;;;5105812;28;20183;-88
2023/04/20 04:24:36;;;;;;;6.67;6.00;;;5.20;80.30;;;;;;5105155;28;20201;-88
2023/04/20 04:27:04;;;;;;;5.60;5.10;;;5.20;80.30;;;;;;5103695;28;20190;-88
2023/04/20 04:29:29;;;;;;;6.20;5.60;;;5.10;81.30;;;;;;5099997;28;20215;-89
2023/04/20 04:31:57;;;;;;;8.87;5.73;;;5.10;80.80;;;;;;5096091;28;20198;-87
2023/04/20 04:34:24;;;;;;;7.70;6.93;;;5.10;80.40;;;;;;5101574;28;20178;-87
2023/04/20 04:36:49;;;;;;;6.27;5.77;;;5.10;80.30;;;;;;5090750;28;20234;-89
2023/04/20 04:39:15;;;;;;;5.93;5.20;;;5.00;80.20;;;;;;5100836;28;20251;-88
2023/04/20 04:41:41;;;;;;;5.50;5.00;;;5.00;81.10;;;;;;5100411;28;20177;-87
2023/04/20 04:44:07;;;;;;;5.23;4.73;;;4.80;82.20;;;;;;5101357;28;20205;-88
2023/04/20 04:46:35;;;;;;;5.83;5.23;;;4.70;82.50;;;;;;5100493;28;20254;-88
2023/04/20 04:49:01;;;;;;;5.83;5.00;;;4.70;82.90;;;;;;5094893;28;20267;-89
2023/04/20 04:51:27;;;;;;;5.30;4.80;;;4.70;84.10;;;;;;5100547;28;20254;-89
2023/04/20 04:53:52;;;;;;;6.60;6.00;;;4.80;82.60;;;;;;5099783;28;20190;-90
2023/04/20 04:56:19;;;;;;;5.87;5.03;;;4.90;82.10;;;;;;5099541;28;20195;-90
2023/04/20 04:58:45;;;;;;;6.47;5.40;;;4.90;82.50;;;;;;5089943;28;20210;-91
2023/04/20 05:01:11;;;;;;;6.37;5.23;;;4.90;81.90;;;;;;5080347;28;20673;-88
2023/04/20 05:03:36;;;;;;;6.70;5.30;;;4.90;81.40;;;;;;5080428;28;20267;-87
2023/04/20 05:06:02;;;;;;;5.93;5.37;;;5.00;81.50;;;;;;5079028;28;20210;-86
2023/04/20 05:08:28;;;;;;;6.27;5.67;;;5.00;80.40;;;;;;5083728;28;20183;-90
2023/04/20 05:10:54;;;;;;;6.40;5.53;;;5.00;81.80;;;;;;5098757;28;20211;-89
2023/04/20 05:13:19;;;;;;;5.60;4.60;;;4.80;83.60;;;;;;5098289;28;20167;-87
2023/04/20 05:15:45;;;;;;;5.90;5.00;;;4.60;84.10;;;;;;5096607;28;20183;-88
2023/04/20 05:18:10;;;;;;;5.00;4.60;;;4.30;85.80;;;;;;5099516;28;20664;-88
2023/04/20 05:20:36;;;;;;;7.10;6.40;;;4.30;87.20;;;;;;5096711;28;20210;-90
2023/04/20 05:23:02;;;;;;;7.90;7.20;;;4.30;87.50;;;;;;5113035;28;20178;-90
2023/04/20 05:25:29;;;;;;;9.47;8.47;;;4.40;87.00;;;;;;5112204;28;20186;-88
2023/04/20 05:27:54;;;;;;;10.00;8.97;;;4.40;86.80;;;;;;5112773;28;20179;-89
2023/04/20 05:30:20;;;;;;;9.03;8.17;;;4.50;86.80;;;;;;5105119;28;20202;-89
2023/04/20 05:32:46;;;;;;;9.00;8.03;;;4.60;86.50;;;;;;5101792;28;20238;-88
2023/04/20 05:35:12;;;;;;;9.07;7.03;;;4.60;86.50;;;;;;5099980;28;20201;-87
2023/04/20 05:37:38;;;;;;;8.43;7.50;;;4.70;85.50;;;;;;5084886;28;20642;-86
2023/04/20 05:40:04;;;;;;;12.83;10.47;;;4.90;85.60;;;;;;5081195;28;20225;-87
2023/04/20 05:42:31;;;;;;;6.80;6.10;;;5.00;84.00;;;;;;5080065;28;20255;-88
2023/04/20 05:44:56;;;;;;;8.03;5.30;;;4.90;84.80;;;;;;5092944;28;20284;-90
2023/04/20 05:47:22;;;;;;;8.13;6.60;;;4.90;85.70;;;;;;5089646;28;20211;-90
2023/04/20 05:49:48;;;;;;;6.23;5.30;;;5.00;84.70;;;;;;5080074;28;20211;-88
2023/04/20 05:52:13;;;;;;;6.97;6.27;;;4.90;85.60;;;;;;5080557;28;20179;-87
2023/04/20 05:54:39;;;;;;;7.00;5.57;;;4.80;85.80;;;;;;5079434;28;20274;-89
2023/04/20 05:57:05;;;;;;;6.97;5.60;;;4.90;85.70;;;;;;5079737;28;20313;-88
2023/04/20 05:59:31;;;;;;;5.80;5.30;;;4.90;84.70;;;;;;5080801;28;20192;-87
2023/04/20 06:01:56;;;;;;;6.53;5.33;;;4.90;84.70;;;;;;5096552;28;20211;-88
2023/04/20 06:04:22;;;;;;;8.17;7.37;;;4.90;85.70;;;;;;5100392;28;20183;-88
2023/04/20 06:06:47;;;;;;;8.37;7.47;;;5.00;85.60;;;;;;5097982;28;20190;-86
2023/04/20 06:09:13;;;;;;;8.90;8.00;;;5.10;84.50;;;;;;5097450;28;20298;-88
2023/04/20 06:11:39;;;;;;;20.77;15.23;;;5.20;84.00;;;;;;5099403;28;20171;-88
2023/04/20 06:14:04;;;;;;;21.67;15.33;;;5.30;83.10;;;;;;5099152;28;20242;-90
2023/04/20 06:16:30;;;;;;;18.47;12.87;;;5.40;82.10;;;;;;5096405;28;20200;-90
2023/04/20 06:18:56;;;;;;;26.47;21.50;;;5.40;82.30;;;;;;5081001;28;20696;-88
2023/04/20 06:21:23;;;;;;;26.43;22.97;;;5.40;82.70;;;;;;5080479;28;20204;-89
2023/04/20 06:23:49;;;;;;;20.90;17.57;;;5.40;83.20;;;;;;5080643;28;20174;-86
2023/04/20 06:26:14;;;;;;;14.00;9.77;;;5.50;83.00;;;;;;5081725;28;20168;-89
2023/04/20 06:28:40;;;;;;;10.47;8.93;;;5.50;82.20;;;;;;5095908;28;20187;-90
2023/04/20 06:31:06;;;;;;;10.50;9.43;;;5.50;81.90;;;;;;5090425;28;20466;-88
2023/04/20 06:33:32;;;;;;;12.20;8.57;;;5.50;80.80;;;;;;5097924;28;20179;-89
2023/04/20 06:35:58;;;;;;;11.53;9.67;;;5.40;80.90;;;;;;5096467;28;20192;-89
2023/04/20 06:38:26;;;;;;;9.03;8.17;;;5.50;82.70;;;;;;5100503;28;20174;-89
2023/04/20 06:40:52;;;;;;;7.00;6.30;;;5.60;81.90;;;;;;5098150;28;20206;-89
2023/04/20 06:43:18;;;;;;;9.47;6.47;;;5.60;80.50;;;;;;5099358;28;20209;-87
2023/04/20 06:45:43;;;;;;;6.10;5.47;;;5.70;80.30;;;;;;5100449;28;20182;-89
2023/04/20 06:48:09;;;;;;;8.43;6.03;;;5.70;80.00;;;;;;5102991;28;20732;-89
2023/04/20 06:50:35;;;;;;;7.50;6.77;;;5.70;79.60;;;;;;5100798;28;20210;-89
2023/04/20 06:53:02;;;;;;;7.73;6.33;;;5.80;78.50;;;;;;5102193;28;20288;-90
2023/04/20 06:55:28;;;;;;;8.93;7.10;;;5.90;78.40;;;;;;5101429;28;20197;-89
2023/04/20 06:57:57;;;;;;;8.30;7.40;;;5.90;78.80;;;;;;5098185;28;21041;-89
2023/04/20 07:00:26;;;;;;;7.40;6.63;;;6.00;78.80;;;;;;5102243;28;20211;-90
2023/04/20 07:02:52;;;;;;;8.87;7.07;;;6.10;76.90;;;;;;5104639;28;20179;-90
2023/04/20 07:05:18;;;;;;;19.50;15.40;;;6.10;77.20;;;;;;5098412;28;20403;-87
2023/04/20 07:07:43;;;;;;;12.57;10.50;;;6.20;77.20;;;;;;5098293;28;20197;-88
2023/04/20 07:10:11;;;;;;;12.57;11.27;;;6.40;77.30;;;;;;5103621;28;20579;-88
2023/04/20 07:12:39;;;;;;;6.93;6.23;;;6.50;76.60;;;;;;5100071;28;20186;-88
2023/04/20 07:15:06;;;;;;;15.57;11.90;;;6.60;76.70;;;;;;5095423;28;20276;-90
2023/04/20 07:17:32;;;;;;;14.93;9.73;;;6.80;76.90;;;;;;5116722;27;20183;-87
2023/04/20 07:20:06;;;;;;;8.83;6.93;;;6.90;77.10;;;;;;5101662;28;20206;-87
2023/04/20 07:22:33;;;;;;;35.13;24.90;;;7.10;75.80;;;;;;5098372;28;20170;-88
2023/04/20 07:25:01;;;;;;;22.10;16.07;;;7.20;74.50;;;;;;5099420;28;20201;-91
2023/04/20 07:27:28;;;;;;;28.13;20.47;;;7.30;74.20;;;;;;5100105;28;20195;-88
2023/04/20 07:29:55;;;;;;;21.73;16.17;;;7.40;73.10;;;;;;5101048;28;20205;-88
2023/04/20 07:32:21;;;;;;;9.67;8.67;;;7.40;73.20;;;;;;5102158;28;20748;-90
2023/04/20 07:34:46;;;;;;;13.97;10.70;;;7.50;73.40;;;;;;5103520;28;20183;-88
2023/04/20 07:37:12;;;;;;;9.63;7.33;;;7.60;72.90;;;;;;5098459;28;20715;-87
2023/04/20 07:39:38;;;;;;;10.93;9.20;;;7.60;72.10;;;;;;5098510;28;20207;-89
2023/04/20 07:42:04;;;;;;;12.57;7.97;;;7.70;73.80;;;;;;5099546;28;20211;-89
2023/04/20 07:44:29;;;;;;;29.07;20.53;;;7.90;71.00;;;;;;5098723;28;20190;-87
2023/04/20 07:46:56;;;;;;;22.87;15.37;;;8.00;72.50;;;;;;5094875;28;20714;-87
2023/04/20 07:49:23;;;;;;;11.47;8.57;;;8.00;71.30;;;;;;5097126;28;20221;-89
2023/04/20 07:51:48;;;;;;;32.80;19.50;;;8.00;71.90;;;;;;5101112;28;20183;-89
2023/04/20 07:54:14;;;;;;;16.40;11.73;;;7.90;72.60;;;;;;5098488;28;20814;-88
2023/04/20 07:56:40;;;;;;;16.50;11.63;;;8.00;72.50;;;;;;5098298;28;20226;-87
2023/04/20 07:59:06;;;;;;;10.30;8.23;;;8.20;71.30;;;;;;5099137;28;20367;-86
2023/04/20 08:01:31;;;;;;;20.97;14.13;;;8.40;72.00;;;;;;5094951;28;20187;-89
2023/04/20 08:03:57;;;;;;;39.43;21.10;;;8.50;70.90;;;;;;5092266;28;20179;-87
2023/04/20 08:06:23;;;;;;;23.93;15.17;;;8.50;70.10;;;;;;5101425;28;20660;-89
2023/04/20 08:08:48;;;;;;;8.13;7.27;;;8.50;71.30;;;;;;5100059;28;20194;-90
2023/04/20 08:11:14;;;;;;;17.23;10.67;;;8.60;70.30;;;;;;5099813;28;20238;-89
2023/04/20 08:13:40;;;;;;;14.47;9.67;;;8.60;69.60;;;;;;5118920;28;20305;-89
2023/04/20 08:16:06;;;;;;;14.30;9.47;;;8.60;69.70;;;;;;5119201;28;20175;-88
2023/04/20 08:18:31;;;;;;;7.67;6.87;;;8.60;69.60;;;;;;5119768;28;20258;-88
2023/04/20 08:20:57;;;;;;;7.13;6.43;;;8.80;70.50;;;;;;5100064;28;20215;-87
2023/04/20 08:23:26;;;;;;;8.50;6.53;;;9.00;69.60;;;;;;5078414;28;20248;-87
2023/04/20 08:25:53;;;;;;;7.50;6.90;;;9.00;67.90;;;;;;5079269;28;20198;-91
2023/04/20 08:28:19;;;;;;;10.00;6.83;;;9.10;69.30;;;;;;5079058;28;20184;-88
2023/04/20 08:30:45;;;;;;;7.50;6.80;;;9.40;67.00;;;;;;5080303;28;20293;-87
2023/04/20 08:33:11;;;;;;;8.37;6.80;;;9.50;66.80;;;;;;5079993;28;20239;-86
2023/04/20 08:35:37;;;;;;;7.67;6.93;;;9.60;67.70;;;;;;5078042;28;20199;-90
2023/04/20 08:38:03;;;;;;;7.37;6.67;;;9.80;67.10;;;;;;5077049;28;20570;-90
2023/04/20 08:40:30;;;;;;;7.57;6.20;;;9.90;64.90;;;;;;5076979;28;20241;-88
2023/04/20 08:42:58;;;;;;;6.93;6.33;;;9.90;66.10;;;;;;5079388;28;20203;-87
2023/04/20 08:45:24;;;;;;;7.27;6.63;;;9.90;64.80;;;;;;5094602;28;20183;-87
2023/04/20 08:47:51;;;;;;;9.07;7.20;;;10.10;65.40;;;;;;5099232;28;20189;-88
2023/04/20 08:50:19;;;;;;;7.67;6.93;;;10.30;65.20;;;;;;5096739;28;20230;-87
2023/04/20 08:52:44;;;;;;;7.47;6.77;;;10.50;62.30;;;;;;5079100;28;20176;-88
2023/04/20 08:55:17;;;;;;;7.33;6.47;;;10.50;63.00;;;;;;5081676;28;20264;-88
2023/04/20 08:57:43;;;;;;;7.43;6.83;;;10.60;63.70;;;;;;5090995;28;20183;-90
2023/04/20 09:00:10;;;;;;;8.03;7.23;;;10.80;61.40;;;;;;5097779;28;20202;-89
2023/04/20 09:02:53;;;;;;;7.23;6.53;;;10.80;60.20;;;;;;5096110;28;20187;-87
2023/04/20 09:05:27;;;;;;;7.60;6.80;;;10.90;59.50;;;;;;5097963;28;20159;-88
2023/04/20 09:08:00;;;;;;;9.50;7.17;;;11.00;58.90;;;;;;5098831;28;20235;-89
2023/04/20 09:10:37;;;;;;;8.50;6.57;;;11.30;58.00;;;;;;5098613;28;20204;-88
2023/04/20 09:13:02;;;;;;;6.90;6.23;;;11.40;57.80;;;;;;5083798;28;20642;-90
2023/04/20 09:15:29;;;;;;;6.80;6.27;;;11.70;57.80;;;;;;5078025;28;20178;-91
2023/04/20 09:17:55;;;;;;;7.73;6.90;;;11.70;56.90;;;;;;5078059;28;20208;-88
2023/04/20 09:20:32;;;;;;;7.87;7.17;;;11.80;56.40;;;;;;5075796;28;20712;-89
2023/04/20 09:23:13;;;;;;;7.70;6.90;;;11.70;57.50;;;;;;5076124;28;20632;-88
2023/04/20 09:25:41;;;;;;;8.43;7.63;;;12.00;56.00;;;;;;5078477;28;20197;-88
2023/04/20 09:28:08;;;;;;;8.73;7.57;;;12.00;54.90;;;;;;5078223;28;20193;-87
2023/04/20 09:30:37;;;;;;;7.77;6.93;;;12.00;54.90;;;;;;5076271;28;20221;-88
2023/04/20 09:33:03;;;;;;;7.23;6.27;;;12.20;56.30;;;;;;5076151;28;20187;-88
2023/04/20 09:35:30;;;;;;;9.57;7.43;;;12.50;54.50;;;;;;5075236;28;20190;-90
2023/04/20 09:37:55;;;;;;;6.70;6.00;;;12.60;55.00;;;;;;5076250;28;20174;-87
2023/04/20 09:40:24;;;;;;;7.97;7.17;;;12.60;52.30;;;;;;5077564;28;20202;-87
2023/04/20 09:42:52;;;;;;;7.80;7.00;;;13.10;52.20;;;;;;5092916;28;20189;-89
2023/04/20 09:45:19;;;;;;;7.53;6.83;;;13.20;50.90;;;;;;5098434;28;20214;-88
2023/04/20 09:47:46;;;;;;;7.30;6.60;;;12.90;51.60;;;;;;5097640;28;20188;-87
2023/04/20 09:50:12;;;;;;;6.17;5.67;;;12.90;51.80;;;;;;5099007;28;20221;-87
2023/04/20 09:52:38;;;;;;;7.67;6.90;;;12.80;53.20;;;;;;5095167;28;20212;-87
2023/04/20 09:55:06;;;;;;;8.07;7.37;;;12.80;51.20;;;;;;5096819;28;20202;-91
2023/04/20 09:57:31;;;;;;;9.40;7.33;;;12.40;53.90;;;;;;5097032;28;20183;-88
2023/04/20 09:59:58;;;;;;;7.80;7.10;;;12.50;52.50;;;;;;5098323;28;20206;-88
2023/04/20 10:02:24;;;;;;;7.20;6.60;;;12.40;53.70;;;;;;5096887;28;20175;-88
2023/04/20 10:04:54;;;;;;;7.70;7.00;;;12.30;54.60;;;;;;5097584;28;20178;-88
2023/04/20 10:07:27;;;;;;;7.80;7.10;;;12.30;54.30;;;;;;5097217;28;20174;-89
2023/04/20 10:10:10;;;;;;;7.10;6.50;;;12.20;55.00;;;;;;5097701;28;20206;-88
2023/04/20 10:12:51;;;;;;;7.47;6.87;;;12.40;54.40;;;;;;5096077;28;20251;-88
2023/04/20 10:15:17;;;;;;;6.83;6.23;;;12.50;53.50;;;;;;5097469;28;20194;-88
2023/04/20 10:17:43;;;;;;;8.10;7.40;;;12.60;53.30;;;;;;5102387;28;20691;-88
2023/04/20 10:20:27;;;;;;;6.93;6.33;;;12.60;53.30;;;;;;5102756;28;20190;-89
2023/04/20 10:23:05;;;;;;;7.57;6.87;;;12.40;53.20;;;;;;5084294;28;20199;-88
2023/04/20 10:25:31;;;;;;;9.23;7.23;;;12.40;54.20;;;;;;5078725;28;20388;-87
2023/04/20 10:28:04;;;;;;;8.20;7.50;;;12.60;53.90;;;;;;5079104;28;20186;-89
2023/04/20 10:30:31;;;;;;;8.07;7.37;;;12.50;53.50;;;;;;5079712;28;20234;-90
2023/04/20 10:33:11;;;;;;;10.80;9.83;;;12.40;56.40;;;;;;5095518;28;20754;-88
2023/04/20 10:35:48;;;;;;;9.43;8.53;;;12.20;54.80;;;;;;5080496;28;20170;-90
2023/04/20 10:38:15;;;;;;;9.80;8.90;;;12.20;54.50;;;;;;5079319;28;20181;-88
2023/04/20 10:40:41;;;;;;;8.40;7.63;;;12.30;55.40;;;;;;5079448;28;20231;-88
2023/04/20 10:43:21;;;;;;;9.30;7.83;;;12.20;53.10;;;;;;5100774;28;20194;-89
2023/04/20 10:45:49;;;;;;;8.07;7.33;;;12.10;54.10;;;;;;5100043;28;20189;-88
2023/04/20 10:48:14;;;;;;;7.67;7.07;;;12.30;53.40;;;;;;5101414;28;20193;-87
2023/04/20 10:50:40;;;;;;;8.00;7.10;;;12.10;54.90;;;;;;5100040;28;20202;-89
2023/04/20 10:53:17;;;;;;;8.47;7.67;;;12.00;55.50;;;;;;5100853;28;20193;-89
2023/04/20 10:55:42;;;;;;;7.93;7.30;;;11.70;56.60;;;;;;5103053;28;20181;-89
2023/04/20 10:58:08;;;;;;;8.57;7.77;;;11.80;56.90;;;;;;5099004;28;20228;-88
2023/04/20 11:00:34;;;;;;;8.73;7.93;;;11.90;58.30;;;;;;5099070;28;20203;-89
2023/04/20 11:02:59;;;;;;;8.77;7.63;;;12.00;58.00;;;;;;5099290;28;20178;-88
2023/04/20 11:05:26;;;;;;;8.50;7.80;;;12.20;57.80;;;;;;5098359;28;20186;-90
2023/04/20 11:07:53;;;;;;;9.03;8.13;;;12.20;60.30;;;;;;5100050;28;20649;-89
2023/04/20 11:10:20;;;;;;;8.80;8.00;;;12.00;59.60;;;;;;5099230;28;20239;-90
2023/04/20 11:12:45;;;;;;;10.37;8.27;;;11.80;61.70;;;;;;5088952;28;20193;-87
2023/04/20 11:15:12;;;;;;;9.47;8.50;;;11.60;61.70;;;;;;5080205;28;20450;-87
2023/04/20 11:17:39;;;;;;;9.50;8.70;;;11.60;63.40;;;;;;5090041;28;20186;-88
2023/04/20 11:20:08;;;;;;;8.77;7.87;;;11.80;63.90;;;;;;5091270;28;20292;-89
2023/04/20 11:22:33;;;;;;;9.37;8.57;;;12.00;60.20;;;;;;5088669;28;20561;-90
2023/04/20 11:25:08;;;;;;;8.53;7.80;;;12.00;63.90;;;;;;5089258;28;20756;-88
2023/04/20 11:27:34;;;;;;;10.00;9.10;;;12.30;66.40;;;;;;5088552;28;20213;-88
2023/04/20 11:30:04;;;;;;;9.23;8.33;;;12.40;65.60;;;;;;5089634;28;20775;-86
2023/04/20 11:32:34;;;;;;;9.70;8.90;;;12.30;62.30;;;;;;5091212;28;20189;-88
2023/04/20 11:35:04;;;;;;;8.57;7.90;;;12.20;63.90;;;;;;5086516;28;20185;-90
2023/04/20 11:37:30;;;;;;;8.30;7.60;;;11.90;64.40;;;;;;5090322;28;20220;-88
2023/04/20 11:40:08;;;;;;;8.17;7.47;;;11.70;65.90;;;;;;5091102;28;20231;-88
2023/04/20 11:42:36;;;;;;;7.60;6.90;;;11.70;65.20;;;;;;5090912;28;20185;-87
2023/04/20 11:45:02;;;;;;;11.93;7.73;;;11.80;66.50;;;;;;5091107;28;20203;-87
2023/04/20 11:47:28;;;;;;;9.00;8.17;;;11.60;68.00;;;;;;5089110;28;20180;-88
2023/04/20 11:49:53;;;;;;;8.97;8.07;;;11.60;69.40;;;;;;5091925;28;20270;-89
2023/04/20 11:52:19;;;;;;;8.87;8.10;;;11.60;69.80;;;;;;5090121;28;20181;-87
2023/04/20 11:54:45;;;;;;;8.20;7.40;;;11.70;67.50;;;;;;5090629;28;20220;-90
2023/04/20 11:57:11;;;;;;;8.70;7.80;;;11.60;67.60;;;;;;5086730;28;20189;-88
2023/04/20 11:59:36;;;;;;;8.57;7.77;;;11.60;69.20;;;;;;5091769;28;20223;-87
2023/04/20 12:02:02;;;;;;;9.33;8.47;;;11.60;69.20;;;;;;5089715;28;20193;-88
2023/04/20 12:04:34;;;;;;;8.50;7.57;;;11.70;68.00;;;;;;5088883;28;20193;-88
2023/04/20 12:07:01;;;;;;;8.57;7.83;;;11.60;66.40;;;;;;5089389;28;20259;-90
2023/04/20 12:09:29;;;;;;;8.87;8.13;;;11.60;69.60;;;;;;5092721;28;20210;-88
2023/04/20 12:11:55;;;;;;;9.17;8.37;;;11.70;69.10;;;;;;5087434;28;20251;-89
2023/04/20 12:14:20;;;;;;;8.23;7.53;;;11.50;69.00;;;;;;5093657;28;20258;-89
2023/04/20 12:16:46;;;;;;;8.53;7.70;;;11.60;68.80;;;;;;5089628;28;20191;-88
2023/04/20 12:19:12;;;;;;;7.83;7.20;;;11.80;69.60;;;;;;5089795;28;20190;-90
2023/04/20 12:21:37;;;;;;;7.53;6.83;;;11.60;65.40;;;;;;5089282;28;20407;-89
2023/04/20 12:24:03;;;;;;;8.07;7.33;;;11.60;66.60;;;;;;5091765;28;20261;-88
2023/04/20 12:26:29;;;;;;;7.83;7.13;;;11.70;64.60;;;;;;5088178;28;20297;-88
2023/04/20 12:28:56;;;;;;;6.93;6.33;;;11.80;63.60;;;;;;5090957;28;20194;-91
2023/04/20 12:31:23;;;;;;;7.13;6.53;;;12.00;67.30;;;;;;5090843;28;20218;-86
2023/04/20 12:33:49;;;;;;;7.20;6.50;;;11.90;66.30;;;;;;5091759;28;20639;-91
2023/04/20 12:36:14;;;;;;;8.20;7.40;;;11.90;63.10;;;;;;5092746;28;20195;-88
2023/04/20 12:38:40;;;;;;;7.50;6.80;;;11.80;62.00;;;;;;5095620;28;20186;-89
2023/04/20 12:41:06;;;;;;;7.67;6.90;;;11.80;64.40;;;;;;5093343;28;20222;-88
2023/04/20 12:43:32;;;;;;;8.60;7.13;;;11.80;61.10;;;;;;5100048;28;20189;-90
2023/04/20 12:45:57;;;;;;;7.93;7.13;;;11.90;60.30;;;;;;5096080;28;20686;-90
2023/04/20 12:48:23;;;;;;;8.13;7.40;;;11.70;61.20;;;;;;5094125;28;20186;-90